Time;durP1;ratioP1;P1;durP2;ratioP2;P2;SDS_P1;SDS_P2;PMS_P1;PMS_P2;Temp;Humidity;BMP_temperature;BMP_pressure;BME280_temperature;BME280_humidity;BME280_pressure;Samples;Min_cycle;Max_cycle;Signal;HPM_P1;HPM_P2
2023/07/20 00:01:38;;;;;;;2.63;1.20;;;15.70;99.90;;;;;;4999018;28;20069;-35
2023/07/20 00:04:03;;;;;;;2.17;1.30;;;15.60;99.90;;;;;;4999882;28;20054;-35
2023/07/20 00:06:29;;;;;;;2.17;1.65;;;15.70;99.90;;;;;;4993114;28;20054;-35
2023/07/20 00:08:55;;;;;;;1.88;1.20;;;15.70;99.90;;;;;;4988098;28;20412;-36
2023/07/20 00:11:25;;;;;;;2.75;0.90;;;15.70;99.90;;;;;;4996158;28;20046;-35
2023/07/20 00:13:50;;;;;;;2.55;1.30;;;15.60;99.90;;;;;;4998990;28;20053;-35
2023/07/20 00:16:16;;;;;;;1.98;0.93;;;15.70;99.90;;;;;;4997573;28;20053;-36
2023/07/20 00:18:42;;;;;;;1.50;1.00;;;15.70;99.90;;;;;;5001515;28;20049;-35
2023/07/20 00:21:08;;;;;;;1.77;1.25;;;15.70;99.90;;;;;;4989522;28;20046;-35
2023/07/20 00:23:33;;;;;;;1.05;0.70;;;15.70;99.90;;;;;;4997231;28;20129;-36
2023/07/20 00:25:59;;;;;;;4.32;1.00;;;15.70;99.90;;;;;;5000101;28;20046;-35
2023/07/20 00:28:25;;;;;;;1.38;0.80;;;15.70;99.90;;;;;;5002259;28;20046;-35
2023/07/20 00:30:50;;;;;;;3.13;1.77;;;15.60;99.90;;;;;;5003592;28;20053;-35
2023/07/20 00:33:17;;;;;;;1.20;0.65;;;15.60;99.90;;;;;;4996070;28;20049;-34
2023/07/20 00:35:43;;;;;;;1.23;0.80;;;15.60;99.90;;;;;;4999970;28;20046;-34
2023/07/20 00:38:08;;;;;;;1.88;0.70;;;15.50;99.90;;;;;;4992039;28;20472;-35
2023/07/20 00:40:38;;;;;;;2.28;0.80;;;15.50;99.90;;;;;;4990624;28;20054;-35
2023/07/20 00:43:03;;;;;;;0.95;0.50;;;15.50;99.90;;;;;;5004018;28;20133;-35
2023/07/20 00:45:30;;;;;;;1.00;0.60;;;15.50;99.90;;;;;;4994482;28;20145;-35
2023/07/20 00:47:57;;;;;;;1.58;0.80;;;15.50;99.90;;;;;;4994699;28;20440;-35
2023/07/20 00:50:24;;;;;;;6.93;0.82;;;15.50;99.90;;;;;;4985733;28;20707;-35
2023/07/20 00:52:49;;;;;;;0.90;0.50;;;15.50;99.90;;;;;;4987040;28;20042;-35
2023/07/20 00:55:15;;;;;;;1.65;0.80;;;15.60;99.90;;;;;;4993671;28;20112;-35
2023/07/20 00:57:41;;;;;;;1.58;0.70;;;15.60;99.90;;;;;;4996116;28;20084;-34
2023/07/20 01:00:08;;;;;;;1.73;0.90;;;15.60;99.90;;;;;;4993623;28;20060;-35
2023/07/20 01:02:33;;;;;;;3.17;0.93;;;15.60;99.90;;;;;;4983665;28;20073;-35
2023/07/20 01:04:59;;;;;;;1.90;0.85;;;15.60;99.90;;;;;;4979068;28;20060;-35
2023/07/20 01:07:36;;;;;;;1.30;0.65;;;15.60;99.90;;;;;;4980011;28;20046;-35
2023/07/20 01:10:14;;;;;;;2.55;0.70;;;15.60;99.90;;;;;;4992529;28;20061;-35
2023/07/20 01:12:46;;;;;;;2.28;1.05;;;15.60;99.90;;;;;;4983375;28;20142;-35
2023/07/20 01:15:12;;;;;;;;;;;15.60;99.90;;;;;;4986296;28;20054;-35
2023/07/20 01:17:38;;;;;;;1.77;1.10;;;15.60;99.90;;;;;;4984314;28;19925;-35
2023/07/20 01:20:09;;;;;;;1.67;0.90;;;15.60;99.90;;;;;;4988243;28;20088;-35
2023/07/20 01:23:02;;;;;;;2.00;0.93;;;15.60;99.90;;;;;;4987634;28;20711;-36
2023/07/20 01:25:47;;;;;;;2.28;0.80;;;15.60;99.90;;;;;;4985360;28;20050;-35
2023/07/20 01:28:30;;;;;;;1.90;0.90;;;15.50;99.90;;;;;;4986825;28;20046;-35
2023/07/20 01:31:07;;;;;;;2.08;0.98;;;15.50;99.90;;;;;;4993421;28;20050;-35
2023/07/20 01:33:35;;;;;;;1.92;0.82;;;15.40;99.90;;;;;;4993543;28;20488;-35
2023/07/20 01:36:01;;;;;;;2.10;1.05;;;15.40;99.90;;;;;;4999589;28;20073;-35
2023/07/20 01:38:28;;;;;;;1.67;1.00;;;15.40;99.90;;;;;;5000603;28;20137;-35
2023/07/20 01:40:54;;;;;;;3.28;1.10;;;15.30;99.90;;;;;;4996493;28;20115;-35
2023/07/20 01:43:20;;;;;;;2.60;1.30;;;15.30;99.90;;;;;;4997112;28;20065;-39
2023/07/20 01:45:45;;;;;;;2.80;1.08;;;15.20;99.90;;;;;;5003562;28;20057;-35
2023/07/20 01:48:11;;;;;;;2.30;1.15;;;15.20;99.90;;;;;;4995737;28;21200;-35
2023/07/20 01:50:37;;;;;;;2.22;1.10;;;15.10;99.90;;;;;;5001264;28;20056;-35
2023/07/20 01:53:02;;;;;;;2.22;1.15;;;15.10;99.90;;;;;;5001966;28;20569;-35
2023/07/20 01:55:28;;;;;;;2.33;1.13;;;15.10;99.90;;;;;;4986701;28;20046;-35
2023/07/20 01:57:55;;;;;;;2.65;1.08;;;15.00;99.90;;;;;;4996749;28;20038;-35
2023/07/20 02:00:23;;;;;;;1.67;1.20;;;15.00;99.90;;;;;;4995368;28;20503;-35
2023/07/20 02:02:50;;;;;;;2.78;1.10;;;14.90;99.90;;;;;;5006281;28;20145;-35
2023/07/20 02:05:16;;;;;;;1.73;1.00;;;14.90;99.90;;;;;;4990006;28;21535;-35
2023/07/20 02:07:42;;;;;;;1.88;1.10;;;14.80;99.90;;;;;;4991875;28;20056;-35
2023/07/20 02:10:08;;;;;;;2.25;1.02;;;14.80;99.90;;;;;;4994999;28;20057;-35
2023/07/20 02:12:33;;;;;;;1.90;1.00;;;14.80;99.90;;;;;;5001863;28;20045;-35
2023/07/20 02:14:59;;;;;;;2.05;1.00;;;14.80;99.90;;;;;;4973414;28;20507;-35
2023/07/20 02:17:25;;;;;;;2.72;1.10;;;14.70;99.90;;;;;;4997710;28;20403;-35
2023/07/20 02:19:54;;;;;;;4.32;1.35;;;14.70;99.90;;;;;;5004064;28;20053;-35
2023/07/20 02:22:21;;;;;;;1.67;1.20;;;14.70;99.90;;;;;;5009688;28;20089;-35
2023/07/20 02:24:48;;;;;;;1.90;1.23;;;14.60;99.90;;;;;;4995046;28;20401;-35
2023/07/20 02:27:13;;;;;;;2.10;1.35;;;14.60;99.90;;;;;;4995915;28;20065;-35
2023/07/20 02:29:41;;;;;;;2.53;1.45;;;14.60;99.90;;;;;;5006635;28;20050;-35
2023/07/20 02:32:07;;;;;;;2.05;1.20;;;14.60;99.90;;;;;;4993015;28;20601;-35
2023/07/20 02:34:33;;;;;;;2.33;1.20;;;14.60;99.90;;;;;;4992037;28;20515;-35
2023/07/20 02:37:00;;;;;;;3.80;1.83;;;14.50;99.90;;;;;;4988507;28;20515;-35
2023/07/20 02:39:27;;;;;;;2.53;1.55;;;14.50;99.90;;;;;;4989556;28;20081;-35
2023/07/20 02:41:54;;;;;;;2.47;1.50;;;14.50;99.90;;;;;;5002358;28;20050;-35
2023/07/20 02:44:20;;;;;;;1.90;1.20;;;14.50;99.90;;;;;;5000904;28;20533;-35
2023/07/20 02:46:45;;;;;;;9.77;1.92;;;14.40;99.90;;;;;;5000911;28;20133;-35
2023/07/20 02:49:11;;;;;;;11.75;1.27;;;14.40;99.90;;;;;;4988712;28;20419;-35
2023/07/20 02:51:37;;;;;;;7.05;1.50;;;14.40;99.90;;;;;;4999961;28;20089;-34
2023/07/20 02:54:03;;;;;;;6.47;1.63;;;14.30;99.90;;;;;;4990103;28;20054;-35
2023/07/20 02:56:29;;;;;;;3.92;1.13;;;14.30;99.90;;;;;;4995872;28;20401;-36
2023/07/20 02:58:54;;;;;;;2.17;1.50;;;14.30;99.90;;;;;;4990998;28;20129;-35
2023/07/20 03:01:20;;;;;;;3.25;1.35;;;14.30;99.90;;;;;;4999787;28;20419;-35
2023/07/20 03:03:46;;;;;;;4.10;1.52;;;14.30;99.90;;;;;;4988282;28;20054;-34
2023/07/20 03:06:15;;;;;;;2.75;1.77;;;14.20;99.90;;;;;;5000169;28;20061;-35
2023/07/20 03:08:42;;;;;;;2.25;1.30;;;14.20;99.90;;;;;;4998551;28;20046;-34
2023/07/20 03:11:07;;;;;;;2.78;1.50;;;14.20;99.90;;;;;;5001520;28;20047;-34
2023/07/20 03:13:33;;;;;;;2.30;1.50;;;14.20;99.90;;;;;;4991968;28;20499;-35
2023/07/20 03:15:59;;;;;;;2.22;1.40;;;14.10;99.90;;;;;;4995715;28;20058;-34
2023/07/20 03:18:24;;;;;;;2.75;1.75;;;14.10;99.90;;;;;;4997592;28;20053;-35
2023/07/20 03:20:50;;;;;;;2.38;1.67;;;14.10;99.90;;;;;;5004125;28;20431;-35
2023/07/20 03:23:16;;;;;;;2.72;1.80;;;14.10;99.90;;;;;;4989482;28;20053;-36
2023/07/20 03:25:42;;;;;;;2.25;1.50;;;14.00;99.90;;;;;;4996275;28;20433;-35
2023/07/20 03:28:08;;;;;;;2.60;1.70;;;14.00;99.90;;;;;;4987320;28;20054;-35
2023/07/20 03:30:34;;;;;;;2.90;1.45;;;14.00;99.90;;;;;;5007061;28;20042;-35
2023/07/20 03:33:00;;;;;;;4.55;1.70;;;14.00;99.90;;;;;;4994332;28;20085;-35
2023/07/20 03:35:26;;;;;;;5.13;1.65;;;14.00;99.90;;;;;;5002459;28;20088;-35
2023/07/20 03:37:51;;;;;;;2.60;1.58;;;14.00;99.90;;;;;;5006609;28;20468;-35
2023/07/20 03:40:17;;;;;;;2.38;1.27;;;13.90;99.90;;;;;;4998358;28;20058;-35
2023/07/20 03:42:43;;;;;;;3.75;1.40;;;13.90;99.90;;;;;;4989708;28;20054;-35
2023/07/20 03:45:09;;;;;;;2.22;1.35;;;13.90;99.90;;;;;;4998112;28;20073;-35
2023/07/20 03:47:35;;;;;;;2.17;1.33;;;13.90;99.90;;;;;;5003894;28;20049;-35
2023/07/20 03:50:00;;;;;;;2.40;1.40;;;13.90;99.90;;;;;;4995051;28;20406;-35
2023/07/20 03:52:26;;;;;;;2.38;1.35;;;13.90;99.90;;;;;;4993754;28;20152;-35
2023/07/20 03:54:52;;;;;;;2.55;1.23;;;13.80;99.90;;;;;;4993791;28;20070;-35
2023/07/20 03:57:17;;;;;;;2.40;1.30;;;13.80;99.90;;;;;;4996316;28;20077;-35
2023/07/20 03:59:46;;;;;;;2.17;1.40;;;13.80;99.90;;;;;;5004688;28;20415;-35
2023/07/20 04:02:12;;;;;;;2.22;1.38;;;13.80;99.90;;;;;;5006725;28;20073;-35
2023/07/20 04:04:38;;;;;;;1.98;1.25;;;13.80;99.90;;;;;;4988884;28;20528;-35
2023/07/20 04:07:04;;;;;;;2.50;1.35;;;13.80;99.90;;;;;;5003979;28;20140;-35
2023/07/20 04:09:31;;;;;;;2.75;1.60;;;13.80;99.90;;;;;;5007364;28;20512;-35
2023/07/20 04:11:57;;;;;;;2.55;1.30;;;13.70;99.90;;;;;;4994729;28;20053;-35
2023/07/20 04:14:22;;;;;;;2.65;1.50;;;13.80;99.90;;;;;;4999785;28;20419;-35
2023/07/20 04:16:48;;;;;;;2.33;1.35;;;13.80;99.90;;;;;;4997029;28;20407;-35
2023/07/20 04:19:14;;;;;;;4.60;1.70;;;13.80;99.90;;;;;;4994062;28;20118;-35
2023/07/20 04:21:43;;;;;;;4.30;1.48;;;13.80;99.90;;;;;;4994917;28;20515;-35
2023/07/20 04:24:08;;;;;;;3.47;1.65;;;13.80;99.90;;;;;;4992557;28;20050;-35
2023/07/20 04:26:35;;;;;;;2.88;1.48;;;13.80;99.90;;;;;;4987350;28;20053;-36
2023/07/20 04:29:01;;;;;;;3.60;1.33;;;13.80;99.90;;;;;;4986578;28;20038;-35
2023/07/20 04:31:26;;;;;;;2.63;1.50;;;13.90;99.90;;;;;;4995059;28;20408;-35
2023/07/20 04:33:52;;;;;;;2.03;1.17;;;13.80;99.90;;;;;;5002275;28;20103;-35
2023/07/20 04:36:19;;;;;;;1.83;1.00;;;13.90;99.90;;;;;;4996776;28;20046;-35
2023/07/20 04:38:48;;;;;;;2.75;0.85;;;13.90;99.90;;;;;;4990100;28;20043;-35
2023/07/20 04:41:14;;;;;;;1.92;0.75;;;13.90;99.90;;;;;;4984643;28;20764;-35
2023/07/20 04:43:44;;;;;;;2.40;1.00;;;13.90;99.90;;;;;;4997076;28;20420;-35
2023/07/20 04:46:10;;;;;;;1.80;1.00;;;14.00;99.90;;;;;;4987493;28;20523;-35
2023/07/20 04:48:36;;;;;;;1.52;0.90;;;14.00;99.90;;;;;;4995798;28;20069;-35
2023/07/20 04:51:02;;;;;;;2.88;0.90;;;14.00;99.90;;;;;;5002201;28;20100;-35
2023/07/20 04:53:27;;;;;;;1.70;1.00;;;14.00;99.90;;;;;;4989237;28;20524;-34
2023/07/20 04:55:54;;;;;;;2.53;1.10;;;14.00;99.90;;;;;;5002624;28;20077;-34
2023/07/20 04:58:21;;;;;;;3.00;1.27;;;14.00;99.90;;;;;;4996629;28;20416;-35
2023/07/20 05:00:47;;;;;;;2.08;1.30;;;14.00;99.90;;;;;;4996306;28;20060;-34
2023/07/20 05:03:13;;;;;;;2.20;1.10;;;14.00;99.90;;;;;;4991896;28;20129;-34
2023/07/20 05:05:39;;;;;;;2.58;1.20;;;14.00;99.90;;;;;;4994005;28;20423;-34
2023/07/20 05:08:04;;;;;;;1.80;1.08;;;14.10;99.90;;;;;;5005464;28;20385;-35
2023/07/20 05:10:30;;;;;;;1.48;0.90;;;14.20;99.90;;;;;;5001332;28;20562;-35
2023/07/20 05:12:56;;;;;;;3.03;1.00;;;14.20;99.90;;;;;;4997398;28;20104;-34
2023/07/20 05:15:21;;;;;;;2.92;1.23;;;14.30;99.90;;;;;;5004416;28;20053;-35
2023/07/20 05:17:48;;;;;;;2.30;1.10;;;14.30;99.90;;;;;;4997108;28;20064;-35
2023/07/20 05:20:14;;;;;;;2.10;1.10;;;14.40;99.90;;;;;;5000069;28;20149;-35
2023/07/20 05:22:40;;;;;;;4.47;1.20;;;14.40;99.90;;;;;;4991691;28;20439;-35
2023/07/20 05:25:08;;;;;;;2.17;0.85;;;14.40;99.90;;;;;;4988132;28;20047;-34
2023/07/20 05:27:34;;;;;;;1.80;0.70;;;14.50;99.90;;;;;;4986805;28;20066;-35
2023/07/20 05:30:00;;;;;;;3.35;1.08;;;14.40;99.90;;;;;;5002460;28;20050;-34
2023/07/20 05:32:26;;;;;;;2.67;0.70;;;14.40;99.90;;;;;;4999249;28;20108;-35
2023/07/20 05:34:53;;;;;;;1.75;0.70;;;14.50;99.90;;;;;;4997712;28;20047;-35
2023/07/20 05:37:18;;;;;;;1.88;0.93;;;14.50;99.90;;;;;;5004888;28;20054;-35
2023/07/20 05:39:44;;;;;;;2.83;1.08;;;14.60;99.90;;;;;;5001183;28;20050;-35
2023/07/20 05:42:10;;;;;;;1.10;0.60;;;14.60;99.90;;;;;;4994151;28;20051;-35
2023/07/20 05:44:35;;;;;;;2.40;0.65;;;14.70;99.90;;;;;;4999769;28;20050;-36
2023/07/20 05:47:02;;;;;;;1.88;0.80;;;14.80;99.90;;;;;;4991062;28;20788;-35
2023/07/20 05:49:28;;;;;;;1.63;0.80;;;14.80;99.90;;;;;;5000109;28;20056;-34
2023/07/20 05:51:55;;;;;;;1.35;0.77;;;14.90;99.90;;;;;;4994540;28;20054;-36
2023/07/20 05:54:21;;;;;;;4.05;0.88;;;14.90;99.90;;;;;;4993308;28;20057;-35
2023/07/20 05:56:47;;;;;;;2.20;0.88;;;15.00;99.90;;;;;;4997351;28;20073;-35
2023/07/20 05:59:13;;;;;;;2.00;0.60;;;15.10;99.90;;;;;;4996848;28;20399;-35
2023/07/20 06:01:39;;;;;;;3.65;0.75;;;15.10;99.90;;;;;;4985809;28;20058;-35
2023/07/20 06:04:04;;;;;;;3.25;0.75;;;15.20;99.90;;;;;;4985676;28;20300;-35
2023/07/20 06:06:30;;;;;;;2.28;0.90;;;15.20;99.90;;;;;;4981389;28;20058;-35
2023/07/20 06:08:55;;;;;;;1.23;0.60;;;15.30;99.90;;;;;;4997013;28;20054;-35
2023/07/20 06:11:21;;;;;;;1.63;0.50;;;15.30;99.90;;;;;;4990936;28;20053;-35
2023/07/20 06:13:47;;;;;;;2.08;0.73;;;15.40;99.90;;;;;;5002616;28;20065;-35
2023/07/20 06:16:13;;;;;;;1.95;0.70;;;15.50;99.90;;;;;;4987710;28;20058;-35
2023/07/20 06:18:38;;;;;;;1.75;0.60;;;15.50;99.90;;;;;;4990155;28;20062;-35
2023/07/20 06:21:04;;;;;;;1.70;0.55;;;15.60;99.90;;;;;;4994787;28;20073;-35
2023/07/20 06:23:30;;;;;;;1.60;0.70;;;15.70;99.90;;;;;;4992791;28;20061;-35
2023/07/20 06:25:56;;;;;;;1.25;0.60;;;15.80;99.90;;;;;;4991630;28;20495;-35
2023/07/20 06:28:21;;;;;;;3.10;1.10;;;15.90;99.90;;;;;;4989506;28;20062;-35
2023/07/20 06:30:47;;;;;;;3.70;1.05;;;16.00;99.90;;;;;;5004310;28;20108;-34
2023/07/20 06:33:12;;;;;;;2.60;1.17;;;16.00;99.90;;;;;;4996664;28;20050;-35
2023/07/20 06:35:41;;;;;;;5.43;1.45;;;16.00;99.90;;;;;;5011987;28;20047;-35
2023/07/20 06:38:08;;;;;;;2.13;0.80;;;16.10;99.90;;;;;;4996635;28;20398;-35
2023/07/20 06:40:36;;;;;;;3.67;1.00;;;16.10;99.90;;;;;;5006700;28;20056;-35
2023/07/20 06:43:02;;;;;;;2.78;1.02;;;16.20;99.90;;;;;;4997055;28;20511;-34
2023/07/20 06:45:27;;;;;;;4.00;1.60;;;16.30;99.90;;;;;;5009610;28;20117;-35
2023/07/20 06:47:53;;;;;;;5.03;1.60;;;16.50;99.90;;;;;;5001262;28;20480;-35
2023/07/20 06:50:18;;;;;;;4.43;2.00;;;16.50;99.90;;;;;;4991474;28;20416;-36
2023/07/20 06:52:46;;;;;;;4.07;1.42;;;16.60;99.90;;;;;;5007087;28;20046;-36
2023/07/20 06:55:12;;;;;;;4.70;1.63;;;16.60;99.90;;;;;;4995312;28;20520;-35
2023/07/20 06:57:37;;;;;;;1.85;0.85;;;16.70;99.90;;;;;;5005735;28;20057;-35
2023/07/20 07:00:04;;;;;;;2.50;1.10;;;16.80;99.90;;;;;;4992418;28;20091;-34
2023/07/20 07:02:29;;;;;;;2.72;1.15;;;16.80;99.90;;;;;;4998855;28;20049;-35
2023/07/20 07:04:56;;;;;;;2.88;1.00;;;16.90;99.90;;;;;;4998031;28;20049;-35
2023/07/20 07:07:22;;;;;;;2.25;0.85;;;16.90;99.90;;;;;;4997969;28;20045;-35
2023/07/20 07:09:47;;;;;;;2.47;0.80;;;17.00;99.90;;;;;;4988210;28;20073;-35
2023/07/20 07:12:14;;;;;;;2.88;0.65;;;16.90;99.90;;;;;;5002312;28;20096;-35
2023/07/20 07:14:40;;;;;;;4.97;0.80;;;17.00;99.90;;;;;;4999814;28;20050;-35
2023/07/20 07:17:06;;;;;;;1.55;0.73;;;17.00;99.90;;;;;;5007127;28;20531;-35
2023/07/20 07:19:31;;;;;;;2.15;1.13;;;17.00;99.90;;;;;;5003265;28;20074;-35
2023/07/20 07:21:57;;;;;;;2.58;1.38;;;17.10;99.90;;;;;;4998376;28;20089;-35
2023/07/20 07:24:23;;;;;;;3.63;1.20;;;17.10;99.90;;;;;;5010488;28;20066;-35
2023/07/20 07:26:48;;;;;;;2.92;1.30;;;17.20;99.90;;;;;;4998129;28;20070;-36
2023/07/20 07:29:14;;;;;;;3.15;1.00;;;17.30;99.90;;;;;;5001745;28;20041;-35
2023/07/20 07:31:40;;;;;;;2.33;1.10;;;17.60;99.90;;;;;;4989896;28;20080;-36
2023/07/20 07:34:05;;;;;;;1.92;0.60;;;17.70;99.90;;;;;;5000966;28;20038;-36
2023/07/20 07:36:31;;;;;;;1.73;0.40;;;17.70;99.90;;;;;;4996771;28;20113;-35
2023/07/20 07:38:57;;;;;;;2.95;0.60;;;17.60;99.90;;;;;;4997759;28;20510;-36
2023/07/20 07:41:23;;;;;;;1.70;0.73;;;17.50;99.90;;;;;;5006790;28;20046;-36
2023/07/20 07:43:49;;;;;;;3.08;0.80;;;17.30;99.90;;;;;;5001318;28;20061;-36
2023/07/20 07:46:15;;;;;;;2.70;0.90;;;17.20;99.90;;;;;;4994604;28;20400;-35
2023/07/20 07:48:41;;;;;;;3.35;0.73;;;17.30;99.90;;;;;;5002970;28;20133;-35
2023/07/20 07:51:07;;;;;;;1.13;0.60;;;17.30;99.90;;;;;;4996459;28;20062;-36
2023/07/20 07:53:34;;;;;;;2.22;0.60;;;17.30;99.90;;;;;;5012033;28;20058;-35
2023/07/20 07:56:00;;;;;;;2.25;0.65;;;17.40;99.90;;;;;;4987275;28;20050;-36
2023/07/20 07:58:26;;;;;;;2.75;0.70;;;17.40;99.90;;;;;;4990886;28;21805;-36
2023/07/20 08:00:51;;;;;;;1.15;0.50;;;17.40;99.90;;;;;;4999309;28;20049;-36
2023/07/20 08:03:18;;;;;;;2.00;0.50;;;17.50;99.90;;;;;;4995300;28;20103;-35
2023/07/20 08:05:44;;;;;;;1.55;0.60;;;17.50;99.90;;;;;;5001915;28;20149;-36
2023/07/20 08:08:09;;;;;;;1.95;0.68;;;17.50;99.90;;;;;;4988548;28;20153;-36
2023/07/20 08:10:35;;;;;;;1.30;0.60;;;17.60;99.90;;;;;;5007061;28;20088;-35
2023/07/20 08:13:01;;;;;;;1.63;0.50;;;17.60;99.90;;;;;;4992540;28;20111;-36
2023/07/20 08:15:26;;;;;;;1.27;0.40;;;17.70;99.90;;;;;;4993867;28;20105;-35
2023/07/20 08:17:52;;;;;;;0.65;0.30;;;17.70;99.90;;;;;;4992810;28;20050;-35
2023/07/20 08:20:18;;;;;;;1.27;0.40;;;17.80;99.90;;;;;;5008787;28;20102;-36
2023/07/20 08:22:44;;;;;;;2.55;0.60;;;18.10;99.90;;;;;;5005193;28;20137;-35
2023/07/20 08:25:10;;;;;;;1.38;0.40;;;18.20;99.90;;;;;;5008652;28;20073;-35
2023/07/20 08:27:36;;;;;;;2.35;1.10;;;18.30;99.90;;;;;;4998121;28;20057;-35
2023/07/20 08:30:04;;;;;;;3.40;0.47;;;18.30;99.90;;;;;;4998681;28;20047;-35
2023/07/20 08:32:30;;;;;;;0.88;0.32;;;18.20;99.90;;;;;;4986394;28;20038;-35
2023/07/20 08:34:55;;;;;;;2.60;0.40;;;18.20;99.90;;;;;;4995964;28;20069;-35
2023/07/20 08:37:21;;;;;;;0.93;0.60;;;18.20;99.90;;;;;;4998123;28;20092;-35
2023/07/20 08:39:47;;;;;;;0.90;0.30;;;18.40;99.90;;;;;;4998939;28;20054;-36
2023/07/20 08:42:15;;;;;;;0.93;0.40;;;18.60;99.90;;;;;;4992805;28;20584;-35
2023/07/20 08:44:42;;;;;;;1.20;0.30;;;19.00;99.90;;;;;;4999047;28;20064;-35
2023/07/20 08:47:10;;;;;;;2.10;0.40;;;19.10;99.90;;;;;;4990150;28;20137;-35
2023/07/20 08:49:38;;;;;;;0.50;0.25;;;19.20;99.90;;;;;;5003171;28;20053;-35
2023/07/20 08:52:04;;;;;;;1.38;0.50;;;19.20;99.90;;;;;;5007233;28;20053;-35
2023/07/20 08:54:34;;;;;;;0.93;0.30;;;19.20;99.90;;;;;;4984391;28;20054;-35
2023/07/20 08:57:04;;;;;;;0.47;0.30;;;19.10;99.90;;;;;;5003834;28;20128;-35
2023/07/20 08:59:30;;;;;;;1.05;0.30;;;19.00;99.90;;;;;;4994373;28;20058;-35
2023/07/20 09:02:00;;;;;;;1.80;0.30;;;19.00;99.90;;;;;;4994830;28;20058;-35
2023/07/20 09:04:26;;;;;;;0.60;0.30;;;18.90;99.90;;;;;;4995154;28;20503;-34
2023/07/20 09:06:52;;;;;;;0.65;0.30;;;18.70;99.90;;;;;;4978722;28;20089;-35
2023/07/20 09:09:18;;;;;;;1.20;0.38;;;18.60;99.90;;;;;;4986829;28;20057;-35
2023/07/20 09:11:46;;;;;;;0.30;0.20;;;18.50;99.90;;;;;;5001594;28;20071;-35
2023/07/20 09:14:12;;;;;;;0.50;0.15;;;18.40;99.90;;;;;;4993189;28;20073;-35
2023/07/20 09:16:50;;;;;;;0.40;0.20;;;18.30;99.90;;;;;;4995678;28;20469;-35
2023/07/20 09:19:17;;;;;;;1.50;0.30;;;18.20;99.90;;;;;;5009135;28;20137;-35
2023/07/20 09:21:47;;;;;;;1.98;0.20;;;18.00;99.90;;;;;;5012376;28;20060;-35
2023/07/20 09:24:13;;;;;;;1.20;0.30;;;17.90;99.90;;;;;;5004461;28;20052;-35
2023/07/20 09:26:50;;;;;;;1.70;0.30;;;17.80;99.90;;;;;;4988418;28;20046;-34
2023/07/20 09:29:19;;;;;;;1.23;0.22;;;17.60;99.90;;;;;;4994393;28;20152;-35
2023/07/20 09:32:04;;;;;;;0.65;0.20;;;17.80;99.90;;;;;;4998873;28;20041;-35
2023/07/20 09:34:33;;;;;;;0.90;0.25;;;18.10;99.90;;;;;;4986315;28;20048;-34
2023/07/20 09:37:00;;;;;;;0.55;0.32;;;18.40;99.90;;;;;;4997529;28;20050;-34
2023/07/20 09:39:26;;;;;;;2.08;0.30;;;18.60;99.90;;;;;;4987508;28;20062;-34
2023/07/20 09:41:52;;;;;;;0.68;0.25;;;18.80;99.90;;;;;;4992616;28;20082;-34
2023/07/20 09:44:19;;;;;;;0.80;0.30;;;18.90;99.90;;;;;;4992485;28;20173;-34
2023/07/20 09:46:49;;;;;;;1.50;0.22;;;19.10;99.90;;;;;;5000711;28;20053;-34
2023/07/20 09:49:17;;;;;;;0.30;0.20;;;19.30;99.90;;;;;;4992712;28;20073;-34
2023/07/20 09:51:43;;;;;;;0.43;0.20;;;19.50;99.90;;;;;;4997596;28;20049;-34
2023/07/20 09:54:11;;;;;;;0.95;0.28;;;19.70;99.90;;;;;;5009880;28;20054;-34
2023/07/20 09:56:39;;;;;;;0.75;0.30;;;19.80;99.90;;;;;;5012817;28;20069;-34
2023/07/20 09:59:05;;;;;;;0.98;0.30;;;19.70;99.90;;;;;;4998309;28;20107;-35
2023/07/20 10:01:32;;;;;;;1.90;0.30;;;19.60;99.90;;;;;;5006975;28;20132;-34
2023/07/20 10:04:01;;;;;;;0.73;0.20;;;19.40;99.90;;;;;;4991763;28;20129;-34
2023/07/20 10:06:29;;;;;;;1.45;0.40;;;19.30;99.90;;;;;;5005240;28;21203;-34
2023/07/20 10:09:00;;;;;;;0.45;0.30;;;19.10;99.90;;;;;;4997553;28;20617;-34
2023/07/20 10:11:29;;;;;;;0.75;0.30;;;18.90;99.90;;;;;;5000446;28;20045;-34
2023/07/20 10:13:58;;;;;;;3.55;0.68;;;18.80;99.90;;;;;;5001559;28;20048;-34
2023/07/20 10:16:49;;;;;;;2.55;0.68;;;18.60;99.90;;;;;;5007996;28;20088;-34
2023/07/20 10:19:25;;;;;;;2.22;0.38;;;18.60;99.90;;;;;;5000327;28;20051;-34
2023/07/20 10:21:59;;;;;;;1.20;0.50;;;18.50;99.90;;;;;;5012706;28;20567;-34
2023/07/20 10:24:26;;;;;;;1.00;0.30;;;18.50;99.90;;;;;;5006731;28;20050;-34
2023/07/20 10:26:52;;;;;;;0.93;0.40;;;18.50;99.90;;;;;;5009467;28;20046;-34
2023/07/20 10:29:18;;;;;;;1.55;0.30;;;18.50;99.90;;;;;;5009303;28;20403;-34
2023/07/20 10:31:44;;;;;;;1.95;0.25;;;18.60;99.90;;;;;;5013273;28;21576;-34
2023/07/20 10:34:10;;;;;;;1.20;0.30;;;18.70;99.90;;;;;;5029270;28;20062;-34
2023/07/20 10:36:46;;;;;;;1.52;0.40;;;18.80;99.90;;;;;;5013143;28;20072;-34
2023/07/20 10:39:33;;;;;;;1.35;0.30;;;18.90;99.90;;;;;;5006765;28;20072;-34
2023/07/20 10:42:09;;;;;;;1.60;0.40;;;18.90;99.90;;;;;;5010237;28;20143;-34
2023/07/20 10:44:42;;;;;;;0.50;0.40;;;19.00;99.90;;;;;;5002230;28;20050;-34
2023/07/20 10:47:12;;;;;;;0.77;0.38;;;19.10;99.90;;;;;;5009868;28;20045;-34
2023/07/20 10:49:58;;;;;;;1.35;0.55;;;19.20;99.90;;;;;;5008177;28;20410;-35
2023/07/20 10:52:23;;;;;;;0.75;0.40;;;19.40;99.90;;;;;;5009196;28;20108;-34
2023/07/20 10:54:50;;;;;;;1.75;0.40;;;19.40;99.90;;;;;;5006073;28;20054;-34
2023/07/20 10:58:06;;;;;;;1.48;0.38;;;19.50;99.90;;;;;;5008072;28;20057;-34
2023/07/20 11:00:32;;;;;;;1.13;0.45;;;19.90;99.90;;;;;;5006704;28;20566;-34
2023/07/20 11:03:02;;;;;;;1.27;0.47;;;19.90;99.90;;;;;;5013479;28;20057;-34
2023/07/20 11:05:39;;;;;;;1.05;0.35;;;19.90;99.90;;;;;;5007347;28;20050;-34
2023/07/20 11:08:09;;;;;;;1.42;0.60;;;20.00;99.90;;;;;;5002056;28;20077;-34
2023/07/20 11:10:35;;;;;;;0.68;0.40;;;20.00;99.90;;;;;;5005005;28;20496;-34
2023/07/20 11:13:16;;;;;;;1.98;0.40;;;20.00;99.90;;;;;;5008945;28;20042;-34
2023/07/20 11:16:01;;;;;;;3.38;0.50;;;19.90;99.90;;;;;;5004909;28;20499;-34
2023/07/20 11:18:27;;;;;;;4.80;0.52;;;19.70;99.90;;;;;;5007109;28;20049;-35
2023/07/20 11:20:53;;;;;;;2.42;0.70;;;19.50;99.90;;;;;;5007327;28;20080;-35
2023/07/20 11:23:22;;;;;;;1.73;0.50;;;19.40;99.90;;;;;;5001985;28;20591;-35
2023/07/20 11:25:49;;;;;;;2.17;0.43;;;19.30;99.90;;;;;;5007814;28;20065;-35
2023/07/20 11:28:15;;;;;;;2.38;0.55;;;19.40;99.90;;;;;;5005453;28;20045;-35
2023/07/20 11:30:41;;;;;;;0.85;0.40;;;19.50;99.90;;;;;;5001991;28;20497;-35
2023/07/20 11:33:10;;;;;;;2.22;0.50;;;19.70;99.90;;;;;;5003371;28;20683;-35
2023/07/20 11:35:46;;;;;;;0.93;0.40;;;19.60;99.90;;;;;;5006843;28;20065;-35
2023/07/20 11:38:13;;;;;;;0.50;0.30;;;19.60;99.90;;;;;;5003542;28;20141;-35
2023/07/20 11:40:46;;;;;;;1.70;0.30;;;19.60;99.90;;;;;;5006065;28;20492;-35
2023/07/20 11:43:15;;;;;;;0.88;0.38;;;19.60;99.90;;;;;;5007332;28;20052;-35
2023/07/20 11:45:41;;;;;;;0.52;0.20;;;19.70;99.90;;;;;;5007797;28;20057;-35
2023/07/20 11:48:06;;;;;;;0.30;0.20;;;19.60;99.90;;;;;;5006245;28;20144;-35
2023/07/20 11:50:38;;;;;;;2.92;0.28;;;19.60;99.90;;;;;;5006645;28;20050;-36
2023/07/20 11:53:03;;;;;;;0.60;0.20;;;19.60;99.90;;;;;;5011172;28;20535;-35
2023/07/20 11:55:29;;;;;;;0.55;0.30;;;19.60;99.90;;;;;;5005897;28;20124;-35
2023/07/20 11:58:08;;;;;;;0.50;0.30;;;19.80;99.90;;;;;;5008105;28;20053;-35
2023/07/20 12:00:35;;;;;;;1.50;0.43;;;20.30;99.90;;;;;;5004147;28;20076;-35
2023/07/20 12:03:04;;;;;;;0.40;0.25;;;20.50;99.90;;;;;;5004327;28;20057;-35
2023/07/20 12:05:30;;;;;;;0.57;0.30;;;20.80;99.90;;;;;;5002853;28;20653;-35
2023/07/20 12:07:56;;;;;;;0.95;0.30;;;21.20;99.90;;;;;;5009802;28;20144;-35
2023/07/20 12:10:26;;;;;;;0.45;0.20;;;21.30;99.90;;;;;;5002037;28;20515;-35
2023/07/20 12:12:52;;;;;;;0.47;0.28;;;21.20;99.90;;;;;;5009707;28;20050;-35
2023/07/20 12:15:29;;;;;;;0.70;0.30;;;21.10;99.90;;;;;;4998225;28;20466;-35
2023/07/20 12:17:57;;;;;;;0.85;0.30;;;20.90;99.90;;;;;;5006235;28;20041;-35
2023/07/20 12:20:27;;;;;;;0.50;0.30;;;20.70;99.90;;;;;;5021866;28;20053;-35
2023/07/20 12:22:54;;;;;;;0.50;0.20;;;20.70;99.90;;;;;;5012246;28;20073;-35
2023/07/20 12:25:20;;;;;;;0.65;0.20;;;20.80;99.90;;;;;;4999110;28;20088;-35
2023/07/20 12:27:47;;;;;;;3.75;0.57;;;21.00;99.90;;;;;;5010829;28;20111;-35
2023/07/20 12:30:16;;;;;;;1.77;0.20;;;21.30;99.90;;;;;;5007167;28;20415;-35
2023/07/20 12:32:42;;;;;;;1.75;0.40;;;21.50;99.90;;;;;;5001985;28;20042;-35
2023/07/20 12:35:08;;;;;;;1.85;0.32;;;21.60;99.90;;;;;;5013725;28;20053;-35
2023/07/20 12:37:34;;;;;;;1.13;0.35;;;21.70;99.90;;;;;;5005748;28;20149;-35
2023/07/20 12:40:00;;;;;;;2.05;0.50;;;21.60;99.90;;;;;;5004429;28;20077;-35
2023/07/20 12:42:25;;;;;;;1.45;0.32;;;21.50;99.90;;;;;;5006482;28;20053;-35
2023/07/20 12:44:51;;;;;;;0.90;0.30;;;21.50;99.90;;;;;;4997735;28;20060;-35
2023/07/20 12:47:18;;;;;;;0.40;0.30;;;21.60;99.90;;;;;;5007267;28;20060;-35
2023/07/20 12:49:45;;;;;;;0.50;0.20;;;21.70;99.90;;;;;;5009363;28;20069;-35